sensor_id;sensor_type;location;lat;lon;timestamp;P1;durP1;ratioP1;P2;durP2;ratioP2
66957;SDS011;53892;43.258;-2.932;2022-11-15T00:00:52;1.67;;;0.20;;
66957;SDS011;53892;43.258;-2.932;2022-11-15T00:03:19;1.95;;;0.22;;
66957;SDS011;53892;43.258;-2.932;2022-11-15T00:05:46;2.28;;;0.15;;
66957;SDS011;53892;43.258;-2.932;2022-11-15T00:08:12;1.75;;;0.10;;
66957;SDS011;53892;43.258;-2.932;2022-11-15T00:10:38;4.60;;;0.60;;
66957;SDS011;53892;43.258;-2.932;2022-11-15T00:13:13;2.33;;;0.10;;
66957;SDS011;53892;43.258;-2.932;2022-11-15T00:15:40;3.25;;;0.10;;
66957;SDS011;53892;43.258;-2.932;2022-11-15T00:18:09;1.70;;;0.10;;
66957;SDS011;53892;43.258;-2.932;2022-11-15T00:20:37;1.10;;;0.10;;
66957;SDS011;53892;43.258;-2.932;2022-11-15T00:23:04;1.27;;;0.10;;
66957;SDS011;53892;43.258;-2.932;2022-11-15T00:25:30;0.90;;;0.10;;
66957;SDS011;53892;43.258;-2.932;2022-11-15T00:27:57;1.55;;;0.20;;
66957;SDS011;53892;43.258;-2.932;2022-11-15T00:30:23;1.27;;;0.15;;
66957;SDS011;53892;43.258;-2.932;2022-11-15T00:32:50;3.63;;;0.20;;
66957;SDS011;53892;43.258;-2.932;2022-11-15T00:35:16;1.55;;;0.20;;
66957;SDS011;53892;43.258;-2.932;2022-11-15T00:37:42;1.13;;;0.10;;
66957;SDS011;53892;43.258;-2.932;2022-11-15T00:40:08;3.47;;;0.20;;
66957;SDS011;53892;43.258;-2.932;2022-11-15T00:42:35;0.77;;;0.10;;
66957;SDS011;53892;43.258;-2.932;2022-11-15T00:45:01;0.77;;;0.10;;
66957;SDS011;53892;43.258;-2.932;2022-11-15T00:47:27;5.57;;;0.22;;
66957;SDS011;53892;43.258;-2.932;2022-11-15T00:49:53;1.73;;;0.20;;
66957;SDS011;53892;43.258;-2.932;2022-11-15T00:52:20;0.50;;;0.10;;
66957;SDS011;53892;43.258;-2.932;2022-11-15T00:54:46;0.50;;;0.10;;
66957;SDS011;53892;43.258;-2.932;2022-11-15T00:57:12;2.53;;;0.20;;
66957;SDS011;53892;43.258;-2.932;2022-11-15T00:59:38;0.90;;;0.10;;
66957;SDS011;53892;43.258;-2.932;2022-11-15T01:02:04;6.32;;;0.10;;
66957;SDS011;53892;43.258;-2.932;2022-11-15T01:04:30;1.65;;;0.20;;
66957;SDS011;53892;43.258;-2.932;2022-11-15T01:06:56;1.33;;;0.22;;
66957;SDS011;53892;43.258;-2.932;2022-11-15T01:09:22;0.65;;;0.10;;
66957;SDS011;53892;43.258;-2.932;2022-11-15T01:11:48;1.52;;;0.17;;
66957;SDS011;53892;43.258;-2.932;2022-11-15T01:14:14;1.42;;;0.20;;
66957;SDS011;53892;43.258;-2.932;2022-11-15T01:16:41;3.92;;;0.63;;
66957;SDS011;53892;43.258;-2.932;2022-11-15T01:19:07;1.27;;;0.10;;
66957;SDS011;53892;43.258;-2.932;2022-11-15T01:21:33;0.70;;;0.20;;
66957;SDS011;53892;43.258;-2.932;2022-11-15T01:23:59;1.08;;;0.10;;
66957;SDS011;53892;43.258;-2.932;2022-11-15T01:26:25;0.30;;;0.10;;
66957;SDS011;53892;43.258;-2.932;2022-11-15T01:28:51;1.98;;;0.10;;
66957;SDS011;53892;43.258;-2.932;2022-11-15T01:31:19;0.77;;;0.20;;
66957;SDS011;53892;43.258;-2.932;2022-11-15T01:33:46;1.05;;;0.10;;
66957;SDS011;53892;43.258;-2.932;2022-11-15T01:36:16;3.65;;;0.20;;
66957;SDS011;53892;43.258;-2.932;2022-11-15T01:38:43;0.85;;;0.10;;
66957;SDS011;53892;43.258;-2.932;2022-11-15T01:41:19;1.67;;;0.28;;
66957;SDS011;53892;43.258;-2.932;2022-11-15T01:43:46;1.48;;;0.15;;
66957;SDS011;53892;43.258;-2.932;2022-11-15T01:48:52;6.18;;;0.30;;
66957;SDS011;53892;43.258;-2.932;2022-11-15T01:51:20;1.17;;;0.20;;
66957;SDS011;53892;43.258;-2.932;2022-11-15T01:53:47;3.95;;;0.20;;
66957;SDS011;53892;43.258;-2.932;2022-11-15T01:56:17;0.70;;;0.15;;
66957;SDS011;53892;43.258;-2.932;2022-11-15T01:58:43;1.65;;;0.20;;
66957;SDS011;53892;43.258;-2.932;2022-11-15T02:01:11;0.80;;;0.10;;
66957;SDS011;53892;43.258;-2.932;2022-11-15T02:03:51;2.13;;;0.17;;
66957;SDS011;53892;43.258;-2.932;2022-11-15T02:06:18;0.98;;;0.10;;
66957;SDS011;53892;43.258;-2.932;2022-11-15T02:08:44;0.65;;;0.10;;
66957;SDS011;53892;43.258;-2.932;2022-11-15T02:11:10;0.68;;;0.10;;
66957;SDS011;53892;43.258;-2.932;2022-11-15T02:13:36;1.95;;;0.10;;
66957;SDS011;53892;43.258;-2.932;2022-11-15T02:18:36;1.83;;;0.10;;
66957;SDS011;53892;43.258;-2.932;2022-11-15T02:21:17;0.30;;;0.10;;
66957;SDS011;53892;43.258;-2.932;2022-11-15T02:31:36;0.30;;;0.05;;
66957;SDS011;53892;43.258;-2.932;2022-11-15T02:44:26;4.88;;;0.10;;
66957;SDS011;53892;43.258;-2.932;2022-11-15T02:47:06;0.30;;;0.10;;
66957;SDS011;53892;43.258;-2.932;2022-11-15T02:49:39;0.70;;;0.10;;
66957;SDS011;53892;43.258;-2.932;2022-11-15T02:52:07;1.27;;;0.10;;
66957;SDS011;53892;43.258;-2.932;2022-11-15T02:54:33;0.68;;;0.10;;
66957;SDS011;53892;43.258;-2.932;2022-11-15T02:57:01;1.70;;;0.10;;
66957;SDS011;53892;43.258;-2.932;2022-11-15T03:07:13;1.30;;;0.10;;
66957;SDS011;53892;43.258;-2.932;2022-11-15T03:09:47;1.83;;;0.10;;
66957;SDS011;53892;43.258;-2.932;2022-11-15T03:14:46;0.30;;;0.00;;
66957;SDS011;53892;43.258;-2.932;2022-11-15T03:17:27;2.75;;;0.20;;
66957;SDS011;53892;43.258;-2.932;2022-11-15T03:19:55;2.58;;;0.10;;
66957;SDS011;53892;43.258;-2.932;2022-11-15T03:22:22;0.40;;;0.00;;
66957;SDS011;53892;43.258;-2.932;2022-11-15T03:24:52;0.25;;;0.00;;
66957;SDS011;53892;43.258;-2.932;2022-11-15T03:27:19;2.45;;;0.10;;
66957;SDS011;53892;43.258;-2.932;2022-11-15T03:29:48;0.70;;;0.03;;
66957;SDS011;53892;43.258;-2.932;2022-11-15T03:32:17;0.68;;;0.00;;
66957;SDS011;53892;43.258;-2.932;2022-11-15T03:34:49;0.17;;;0.00;;
66957;SDS011;53892;43.258;-2.932;2022-11-15T03:37:17;0.90;;;0.00;;
66957;SDS011;53892;43.258;-2.932;2022-11-15T03:39:46;0.60;;;0.00;;
66957;SDS011;53892;43.258;-2.932;2022-11-15T03:42:22;0.50;;;0.00;;
66957;SDS011;53892;43.258;-2.932;2022-11-15T03:47:42;1.38;;;0.00;;
66957;SDS011;53892;43.258;-2.932;2022-11-15T03:50:13;2.33;;;0.00;;
66957;SDS011;53892;43.258;-2.932;2022-11-15T03:52:41;2.53;;;0.08;;
66957;SDS011;53892;43.258;-2.932;2022-11-15T03:55:10;2.70;;;0.10;;
66957;SDS011;53892;43.258;-2.932;2022-11-15T03:57:36;0.38;;;0.03;;
66957;SDS011;53892;43.258;-2.932;2022-11-15T04:00:03;0.77;;;0.00;;
66957;SDS011;53892;43.258;-2.932;2022-11-15T04:02:29;1.35;;;0.00;;
66957;SDS011;53892;43.258;-2.932;2022-11-15T04:04:55;0.65;;;0.00;;
66957;SDS011;53892;43.258;-2.932;2022-11-15T04:07:21;0.75;;;0.00;;
66957;SDS011;53892;43.258;-2.932;2022-11-15T04:09:48;0.28;;;0.10;;
66957;SDS011;53892;43.258;-2.932;2022-11-15T04:12:42;1.33;;;0.08;;
66957;SDS011;53892;43.258;-2.932;2022-11-15T04:15:09;0.73;;;0.08;;
66957;SDS011;53892;43.258;-2.932;2022-11-15T04:17:37;1.80;;;0.00;;
66957;SDS011;53892;43.258;-2.932;2022-11-15T04:20:03;0.10;;;0.00;;
66957;SDS011;53892;43.258;-2.932;2022-11-15T04:22:48;0.57;;;0.00;;
66957;SDS011;53892;43.258;-2.932;2022-11-15T04:25:33;0.10;;;0.00;;
66957;SDS011;53892;43.258;-2.932;2022-11-15T04:27:59;0.82;;;0.00;;
66957;SDS011;53892;43.258;-2.932;2022-11-15T04:30:25;1.95;;;0.03;;
66957;SDS011;53892;43.258;-2.932;2022-11-15T04:32:51;0.38;;;0.00;;
66957;SDS011;53892;43.258;-2.932;2022-11-15T04:35:17;0.40;;;0.00;;
66957;SDS011;53892;43.258;-2.932;2022-11-15T04:37:43;0.80;;;0.00;;
66957;SDS011;53892;43.258;-2.932;2022-11-15T04:40:09;1.88;;;0.65;;
66957;SDS011;53892;43.258;-2.932;2022-11-15T04:42:36;2.40;;;0.00;;
66957;SDS011;53892;43.258;-2.932;2022-11-15T04:45:02;2.95;;;0.22;;
66957;SDS011;53892;43.258;-2.932;2022-11-15T04:47:28;0.13;;;0.00;;
66957;SDS011;53892;43.258;-2.932;2022-11-15T04:49:54;0.63;;;0.00;;
66957;SDS011;53892;43.258;-2.932;2022-11-15T04:52:20;2.83;;;0.17;;
66957;SDS011;53892;43.258;-2.932;2022-11-15T04:54:46;0.98;;;0.03;;
66957;SDS011;53892;43.258;-2.932;2022-11-15T04:57:12;1.98;;;0.00;;
66957;SDS011;53892;43.258;-2.932;2022-11-15T04:59:39;0.20;;;0.00;;
66957;SDS011;53892;43.258;-2.932;2022-11-15T05:02:05;0.55;;;0.00;;
66957;SDS011;53892;43.258;-2.932;2022-11-15T05:04:32;0.13;;;0.00;;
66957;SDS011;53892;43.258;-2.932;2022-11-15T05:06:58;0.10;;;0.00;;
66957;SDS011;53892;43.258;-2.932;2022-11-15T05:09:24;0.05;;;0.00;;
66957;SDS011;53892;43.258;-2.932;2022-11-15T05:11:50;0.43;;;0.00;;
66957;SDS011;53892;43.258;-2.932;2022-11-15T05:14:16;0.52;;;0.00;;
66957;SDS011;53892;43.258;-2.932;2022-11-15T05:16:42;0.88;;;0.00;;
66957;SDS011;53892;43.258;-2.932;2022-11-15T05:19:09;0.20;;;0.00;;
66957;SDS011;53892;43.258;-2.932;2022-11-15T05:21:35;0.57;;;0.00;;
66957;SDS011;53892;43.258;-2.932;2022-11-15T05:24:01;1.25;;;0.00;;
66957;SDS011;53892;43.258;-2.932;2022-11-15T05:26:28;1.45;;;0.00;;
66957;SDS011;53892;43.258;-2.932;2022-11-15T05:28:55;1.02;;;0.00;;
66957;SDS011;53892;43.258;-2.932;2022-11-15T05:31:21;0.70;;;0.00;;
66957;SDS011;53892;43.258;-2.932;2022-11-15T05:33:48;0.00;;;0.00;;
66957;SDS011;53892;43.258;-2.932;2022-11-15T05:36:25;1.02;;;0.10;;
66957;SDS011;53892;43.258;-2.932;2022-11-15T05:38:53;0.80;;;0.00;;
66957;SDS011;53892;43.258;-2.932;2022-11-15T05:41:20;0.00;;;0.00;;
66957;SDS011;53892;43.258;-2.932;2022-11-15T05:43:46;2.50;;;0.00;;
66957;SDS011;53892;43.258;-2.932;2022-11-15T05:46:14;0.70;;;0.00;;
66957;SDS011;53892;43.258;-2.932;2022-11-15T05:48:41;0.85;;;0.00;;
66957;SDS011;53892;43.258;-2.932;2022-11-15T05:51:07;0.10;;;0.00;;
66957;SDS011;53892;43.258;-2.932;2022-11-15T05:53:34;0.17;;;0.00;;
66957;SDS011;53892;43.258;-2.932;2022-11-15T05:56:00;1.55;;;0.00;;
66957;SDS011;53892;43.258;-2.932;2022-11-15T05:58:27;0.10;;;0.00;;
66957;SDS011;53892;43.258;-2.932;2022-11-15T06:00:53;1.52;;;0.00;;
66957;SDS011;53892;43.258;-2.932;2022-11-15T06:03:19;0.30;;;0.10;;
66957;SDS011;53892;43.258;-2.932;2022-11-15T06:05:45;0.90;;;0.00;;
66957;SDS011;53892;43.258;-2.932;2022-11-15T06:08:12;0.20;;;0.00;;
66957;SDS011;53892;43.258;-2.932;2022-11-15T06:10:38;0.20;;;0.00;;
66957;SDS011;53892;43.258;-2.932;2022-11-15T06:13:04;0.30;;;0.05;;
66957;SDS011;53892;43.258;-2.932;2022-11-15T06:15:31;1.98;;;0.05;;
66957;SDS011;53892;43.258;-2.932;2022-11-15T06:17:58;0.00;;;0.00;;
66957;SDS011;53892;43.258;-2.932;2022-11-15T06:20:25;0.20;;;0.00;;
66957;SDS011;53892;43.258;-2.932;2022-11-15T06:22:55;1.92;;;0.10;;
66957;SDS011;53892;43.258;-2.932;2022-11-15T06:25:21;0.32;;;0.20;;
66957;SDS011;53892;43.258;-2.932;2022-11-15T06:27:55;1.40;;;0.10;;
66957;SDS011;53892;43.258;-2.932;2022-11-15T06:32:47;1.58;;;0.30;;
66957;SDS011;53892;43.258;-2.932;2022-11-15T06:35:13;0.57;;;0.00;;
66957;SDS011;53892;43.258;-2.932;2022-11-15T06:37:39;0.32;;;0.00;;
66957;SDS011;53892;43.258;-2.932;2022-11-15T06:40:06;0.75;;;0.17;;
66957;SDS011;53892;43.258;-2.932;2022-11-15T06:42:33;1.00;;;0.10;;
66957;SDS011;53892;43.258;-2.932;2022-11-15T06:44:59;0.13;;;0.00;;
66957;SDS011;53892;43.258;-2.932;2022-11-15T06:47:25;0.10;;;0.00;;
66957;SDS011;53892;43.258;-2.932;2022-11-15T06:49:51;0.60;;;0.00;;
66957;SDS011;53892;43.258;-2.932;2022-11-15T06:52:19;0.93;;;0.10;;
66957;SDS011;53892;43.258;-2.932;2022-11-15T06:54:46;0.63;;;0.00;;
66957;SDS011;53892;43.258;-2.932;2022-11-15T06:57:12;0.43;;;0.00;;
66957;SDS011;53892;43.258;-2.932;2022-11-15T06:59:38;0.88;;;0.00;;
66957;SDS011;53892;43.258;-2.932;2022-11-15T07:02:05;0.22;;;0.00;;
66957;SDS011;53892;43.258;-2.932;2022-11-15T07:04:31;1.55;;;0.00;;
66957;SDS011;53892;43.258;-2.932;2022-11-15T07:06:57;0.20;;;0.00;;
66957;SDS011;53892;43.258;-2.932;2022-11-15T07:09:23;0.10;;;0.00;;
66957;SDS011;53892;43.258;-2.932;2022-11-15T07:11:51;0.28;;;0.00;;
66957;SDS011;53892;43.258;-2.932;2022-11-15T07:14:17;0.35;;;0.00;;
66957;SDS011;53892;43.258;-2.932;2022-11-15T07:16:46;0.20;;;0.00;;
66957;SDS011;53892;43.258;-2.932;2022-11-15T07:19:12;0.10;;;0.00;;
66957;SDS011;53892;43.258;-2.932;2022-11-15T07:21:38;0.88;;;0.43;;
66957;SDS011;53892;43.258;-2.932;2022-11-15T07:24:04;0.57;;;0.00;;
66957;SDS011;53892;43.258;-2.932;2022-11-15T07:26:30;1.23;;;0.00;;
66957;SDS011;53892;43.258;-2.932;2022-11-15T07:28:56;0.00;;;0.00;;
66957;SDS011;53892;43.258;-2.932;2022-11-15T07:31:22;2.28;;;0.00;;
66957;SDS011;53892;43.258;-2.932;2022-11-15T07:33:48;0.20;;;0.00;;
66957;SDS011;53892;43.258;-2.932;2022-11-15T07:36:15;0.73;;;0.08;;
66957;SDS011;53892;43.258;-2.932;2022-11-15T07:38:41;2.05;;;0.10;;
66957;SDS011;53892;43.258;-2.932;2022-11-15T07:41:07;0.28;;;0.00;;
66957;SDS011;53892;43.258;-2.932;2022-11-15T07:43:33;2.83;;;0.00;;
66957;SDS011;53892;43.258;-2.932;2022-11-15T07:46:03;0.95;;;0.10;;
66957;SDS011;53892;43.258;-2.932;2022-11-15T07:48:30;1.17;;;0.00;;
66957;SDS011;53892;43.258;-2.932;2022-11-15T07:50:56;0.17;;;0.00;;
66957;SDS011;53892;43.258;-2.932;2022-11-15T07:53:22;1.35;;;0.10;;
66957;SDS011;53892;43.258;-2.932;2022-11-15T07:55:48;0.10;;;0.00;;
66957;SDS011;53892;43.258;-2.932;2022-11-15T07:58:14;0.05;;;0.00;;
66957;SDS011;53892;43.258;-2.932;2022-11-15T08:00:40;3.60;;;0.10;;
66957;SDS011;53892;43.258;-2.932;2022-11-15T08:03:10;0.20;;;0.10;;
66957;SDS011;53892;43.258;-2.932;2022-11-15T08:05:37;2.17;;;0.00;;
66957;SDS011;53892;43.258;-2.932;2022-11-15T08:08:04;1.65;;;0.20;;
66957;SDS011;53892;43.258;-2.932;2022-11-15T08:10:36;0.28;;;0.00;;
66957;SDS011;53892;43.258;-2.932;2022-11-15T08:13:07;0.98;;;0.10;;
66957;SDS011;53892;43.258;-2.932;2022-11-15T08:15:36;2.78;;;0.00;;
66957;SDS011;53892;43.258;-2.932;2022-11-15T08:18:06;7.30;;;0.00;;
66957;SDS011;53892;43.258;-2.932;2022-11-15T08:20:57;1.60;;;0.20;;
66957;SDS011;53892;43.258;-2.932;2022-11-15T08:23:19;5.10;;;0.08;;
66957;SDS011;53892;43.258;-2.932;2022-11-15T08:25:45;0.25;;;0.00;;
66957;SDS011;53892;43.258;-2.932;2022-11-15T08:28:11;1.55;;;0.10;;
66957;SDS011;53892;43.258;-2.932;2022-11-15T08:33:35;0.10;;;0.00;;
66957;SDS011;53892;43.258;-2.932;2022-11-15T08:36:01;1.20;;;0.10;;
66957;SDS011;53892;43.258;-2.932;2022-11-15T08:38:27;0.00;;;0.00;;
66957;SDS011;53892;43.258;-2.932;2022-11-15T08:40:58;3.92;;;0.10;;
66957;SDS011;53892;43.258;-2.932;2022-11-15T08:43:25;0.70;;;0.00;;
66957;SDS011;53892;43.258;-2.932;2022-11-15T08:45:55;0.40;;;0.00;;
66957;SDS011;53892;43.258;-2.932;2022-11-15T08:48:30;0.47;;;0.15;;
66957;SDS011;53892;43.258;-2.932;2022-11-15T08:51:14;0.17;;;0.00;;
66957;SDS011;53892;43.258;-2.932;2022-11-15T08:53:42;0.45;;;0.00;;
66957;SDS011;53892;43.258;-2.932;2022-11-15T08:56:12;0.75;;;0.00;;
66957;SDS011;53892;43.258;-2.932;2022-11-15T08:58:41;8.35;;;0.10;;
66957;SDS011;53892;43.258;-2.932;2022-11-15T09:03:39;7.10;;;0.03;;
66957;SDS011;53892;43.258;-2.932;2022-11-15T09:06:05;0.30;;;0.00;;
66957;SDS011;53892;43.258;-2.932;2022-11-15T09:08:31;0.40;;;0.00;;
66957;SDS011;53892;43.258;-2.932;2022-11-15T09:10:58;1.70;;;0.00;;
66957;SDS011;53892;43.258;-2.932;2022-11-15T09:13:24;1.05;;;0.00;;
66957;SDS011;53892;43.258;-2.932;2022-11-15T09:15:50;0.08;;;0.00;;
66957;SDS011;53892;43.258;-2.932;2022-11-15T09:18:16;0.85;;;0.10;;
66957;SDS011;53892;43.258;-2.932;2022-11-15T09:20:42;1.23;;;0.03;;
66957;SDS011;53892;43.258;-2.932;2022-11-15T09:23:11;0.20;;;0.00;;
66957;SDS011;53892;43.258;-2.932;2022-11-15T09:25:37;0.10;;;0.00;;
66957;SDS011;53892;43.258;-2.932;2022-11-15T09:28:07;0.80;;;0.00;;
66957;SDS011;53892;43.258;-2.932;2022-11-15T09:30:33;1.02;;;0.00;;
66957;SDS011;53892;43.258;-2.932;2022-11-15T09:33:05;1.23;;;0.00;;
66957;SDS011;53892;43.258;-2.932;2022-11-15T09:35:32;2.13;;;0.00;;
66957;SDS011;53892;43.258;-2.932;2022-11-15T09:37:58;0.10;;;0.00;;
66957;SDS011;53892;43.258;-2.932;2022-11-15T09:40:24;0.10;;;0.00;;
66957;SDS011;53892;43.258;-2.932;2022-11-15T09:45:22;1.42;;;0.03;;
66957;SDS011;53892;43.258;-2.932;2022-11-15T09:48:09;0.10;;;0.00;;
66957;SDS011;53892;43.258;-2.932;2022-11-15T09:53:10;0.10;;;0.00;;
66957;SDS011;53892;43.258;-2.932;2022-11-15T09:55:43;4.38;;;0.00;;
66957;SDS011;53892;43.258;-2.932;2022-11-15T09:58:57;0.10;;;0.00;;
66957;SDS011;53892;43.258;-2.932;2022-11-15T10:01:22;0.70;;;0.00;;
66957;SDS011;53892;43.258;-2.932;2022-11-15T10:03:52;1.47;;;0.00;;
66957;SDS011;53892;43.258;-2.932;2022-11-15T10:06:25;0.47;;;0.00;;
66957;SDS011;53892;43.258;-2.932;2022-11-15T10:09:00;1.88;;;0.00;;
66957;SDS011;53892;43.258;-2.932;2022-11-15T10:11:28;2.28;;;0.00;;
66957;SDS011;53892;43.258;-2.932;2022-11-15T10:14:00;0.85;;;0.00;;
66957;SDS011;53892;43.258;-2.932;2022-11-15T10:24:19;2.95;;;0.00;;
66957;SDS011;53892;43.258;-2.932;2022-11-15T10:26:48;0.20;;;0.00;;
66957;SDS011;53892;43.258;-2.932;2022-11-15T10:29:21;0.20;;;0.00;;
66957;SDS011;53892;43.258;-2.932;2022-11-15T10:34:21;2.35;;;0.10;;
66957;SDS011;53892;43.258;-2.932;2022-11-15T10:36:54;0.88;;;0.00;;
66957;SDS011;53892;43.258;-2.932;2022-11-15T10:39:21;3.70;;;0.10;;
66957;SDS011;53892;43.258;-2.932;2022-11-15T10:41:47;0.20;;;0.00;;
66957;SDS011;53892;43.258;-2.932;2022-11-15T10:46:44;0.52;;;0.10;;
66957;SDS011;53892;43.258;-2.932;2022-11-15T10:51:47;1.17;;;0.10;;
66957;SDS011;53892;43.258;-2.932;2022-11-15T10:57:13;1.95;;;0.03;;
66957;SDS011;53892;43.258;-2.932;2022-11-15T10:59:42;3.40;;;0.10;;
66957;SDS011;53892;43.258;-2.932;2022-11-15T11:04:56;0.82;;;0.00;;
66957;SDS011;53892;43.258;-2.932;2022-11-15T11:07:23;2.88;;;0.00;;
66957;SDS011;53892;43.258;-2.932;2022-11-15T11:12:28;0.20;;;0.00;;
66957;SDS011;53892;43.258;-2.932;2022-11-15T11:14:56;1.98;;;0.10;;
66957;SDS011;53892;43.258;-2.932;2022-11-15T11:17:34;4.13;;;0.10;;
66957;SDS011;53892;43.258;-2.932;2022-11-15T11:21:03;2.55;;;0.10;;
66957;SDS011;53892;43.258;-2.932;2022-11-15T11:26:12;4.95;;;0.10;;
66957;SDS011;53892;43.258;-2.932;2022-11-15T11:28:48;6.63;;;0.75;;
66957;SDS011;53892;43.258;-2.932;2022-11-15T11:39:00;1.45;;;0.00;;
66957;SDS011;53892;43.258;-2.932;2022-11-15T11:44:28;0.38;;;0.00;;
66957;SDS011;53892;43.258;-2.932;2022-11-15T11:47:00;0.43;;;0.00;;
66957;SDS011;53892;43.258;-2.932;2022-11-15T11:49:28;0.17;;;0.00;;
66957;SDS011;53892;43.258;-2.932;2022-11-15T11:52:00;2.15;;;0.00;;
66957;SDS011;53892;43.258;-2.932;2022-11-15T11:56:55;15.52;;;0.45;;
66957;SDS011;53892;43.258;-2.932;2022-11-15T12:02:28;15.10;;;0.50;;
66957;SDS011;53892;43.258;-2.932;2022-11-15T12:04:58;15.07;;;0.80;;
66957;SDS011;53892;43.258;-2.932;2022-11-15T12:07:29;10.43;;;1.00;;
66957;SDS011;53892;43.258;-2.932;2022-11-15T12:16:07;17.48;;;1.85;;
66957;SDS011;53892;43.258;-2.932;2022-11-15T12:18:12;15.10;;;1.08;;
66957;SDS011;53892;43.258;-2.932;2022-11-15T12:20:39;13.07;;;1.10;;
66957;SDS011;53892;43.258;-2.932;2022-11-15T12:23:26;18.00;;;1.70;;
66957;SDS011;53892;43.258;-2.932;2022-11-15T12:26:37;14.90;;;0.73;;
66957;SDS011;53892;43.258;-2.932;2022-11-15T12:31:21;9.00;;;0.40;;
66957;SDS011;53892;43.258;-2.932;2022-11-15T12:34:02;11.80;;;1.00;;
66957;SDS011;53892;43.258;-2.932;2022-11-15T12:39:08;13.88;;;1.10;;
66957;SDS011;53892;43.258;-2.932;2022-11-15T12:41:41;22.10;;;1.13;;
66957;SDS011;53892;43.258;-2.932;2022-11-15T12:59:47;10.40;;;1.15;;
66957;SDS011;53892;43.258;-2.932;2022-11-15T13:02:24;13.40;;;1.90;;
66957;SDS011;53892;43.258;-2.932;2022-11-15T13:04:52;13.73;;;2.25;;
66957;SDS011;53892;43.258;-2.932;2022-11-15T13:10:07;18.40;;;1.17;;
66957;SDS011;53892;43.258;-2.932;2022-11-15T13:17:44;17.20;;;1.50;;
66957;SDS011;53892;43.258;-2.932;2022-11-15T13:22:41;21.42;;;1.45;;
66957;SDS011;53892;43.258;-2.932;2022-11-15T13:33:42;11.63;;;1.00;;
66957;SDS011;53892;43.258;-2.932;2022-11-15T13:36:12;6.20;;;0.60;;
66957;SDS011;53892;43.258;-2.932;2022-11-15T13:38:42;13.10;;;1.55;;
66957;SDS011;53892;43.258;-2.932;2022-11-15T13:41:21;24.17;;;1.65;;
66957;SDS011;53892;43.258;-2.932;2022-11-15T13:43:48;11.73;;;1.35;;
66957;SDS011;53892;43.258;-2.932;2022-11-15T13:48:42;4.60;;;0.30;;
66957;SDS011;53892;43.258;-2.932;2022-11-15T13:51:19;10.73;;;0.40;;
66957;SDS011;53892;43.258;-2.932;2022-11-15T13:54:29;6.45;;;0.47;;
66957;SDS011;53892;43.258;-2.932;2022-11-15T13:56:42;12.73;;;0.80;;
66957;SDS011;53892;43.258;-2.932;2022-11-15T13:59:13;11.13;;;0.65;;
66957;SDS011;53892;43.258;-2.932;2022-11-15T14:01:41;18.38;;;1.45;;
66957;SDS011;53892;43.258;-2.932;2022-11-15T14:04:17;9.43;;;1.00;;
66957;SDS011;53892;43.258;-2.932;2022-11-15T14:06:48;8.68;;;0.50;;
66957;SDS011;53892;43.258;-2.932;2022-11-15T14:12:19;13.73;;;0.70;;
66957;SDS011;53892;43.258;-2.932;2022-11-15T14:14:47;10.63;;;0.77;;
66957;SDS011;53892;43.258;-2.932;2022-11-15T14:20:01;13.25;;;0.88;;
66957;SDS011;53892;43.258;-2.932;2022-11-15T14:22:28;14.32;;;0.95;;
66957;SDS011;53892;43.258;-2.932;2022-11-15T14:30:36;10.45;;;0.70;;
66957;SDS011;53892;43.258;-2.932;2022-11-15T14:33:23;18.30;;;1.23;;
66957;SDS011;53892;43.258;-2.932;2022-11-15T14:36:13;12.05;;;0.75;;
66957;SDS011;53892;43.258;-2.932;2022-11-15T14:38:46;13.65;;;0.60;;
66957;SDS011;53892;43.258;-2.932;2022-11-15T14:41:23;8.43;;;0.40;;
66957;SDS011;53892;43.258;-2.932;2022-11-15T14:47:21;10.73;;;0.88;;
66957;SDS011;53892;43.258;-2.932;2022-11-15T14:50:00;9.80;;;0.73;;
66957;SDS011;53892;43.258;-2.932;2022-11-15T14:52:31;11.35;;;0.68;;
66957;SDS011;53892;43.258;-2.932;2022-11-15T14:57:39;8.40;;;0.45;;
66957;SDS011;53892;43.258;-2.932;2022-11-15T15:00:06;7.90;;;0.57;;
66957;SDS011;53892;43.258;-2.932;2022-11-15T15:02:33;11.48;;;1.25;;
66957;SDS011;53892;43.258;-2.932;2022-11-15T15:05:11;11.75;;;1.15;;
66957;SDS011;53892;43.258;-2.932;2022-11-15T15:07:41;13.50;;;1.17;;
66957;SDS011;53892;43.258;-2.932;2022-11-15T15:10:13;10.30;;;0.55;;
66957;SDS011;53892;43.258;-2.932;2022-11-15T15:12:43;8.50;;;0.60;;
66957;SDS011;53892;43.258;-2.932;2022-11-15T15:15:13;13.18;;;1.52;;
66957;SDS011;53892;43.258;-2.932;2022-11-15T15:17:59;10.30;;;0.68;;
66957;SDS011;53892;43.258;-2.932;2022-11-15T15:20:28;3.53;;;0.63;;
66957;SDS011;53892;43.258;-2.932;2022-11-15T15:22:57;9.52;;;1.23;;
66957;SDS011;53892;43.258;-2.932;2022-11-15T15:25:33;13.73;;;0.77;;
66957;SDS011;53892;43.258;-2.932;2022-11-15T15:28:00;8.02;;;0.40;;
66957;SDS011;53892;43.258;-2.932;2022-11-15T15:30:33;5.95;;;0.30;;
66957;SDS011;53892;43.258;-2.932;2022-11-15T15:32:59;9.93;;;0.80;;
66957;SDS011;53892;43.258;-2.932;2022-11-15T15:35:28;8.32;;;0.82;;
66957;SDS011;53892;43.258;-2.932;2022-11-15T15:37:55;10.75;;;1.02;;
66957;SDS011;53892;43.258;-2.932;2022-11-15T15:40:22;15.43;;;0.82;;
66957;SDS011;53892;43.258;-2.932;2022-11-15T15:42:49;8.95;;;0.60;;
66957;SDS011;53892;43.258;-2.932;2022-11-15T15:45:19;14.00;;;1.48;;
66957;SDS011;53892;43.258;-2.932;2022-11-15T15:47:45;10.57;;;1.25;;
66957;SDS011;53892;43.258;-2.932;2022-11-15T15:50:27;12.02;;;0.90;;
66957;SDS011;53892;43.258;-2.932;2022-11-15T15:52:58;11.20;;;0.52;;
66957;SDS011;53892;43.258;-2.932;2022-11-15T15:55:24;6.35;;;0.82;;
66957;SDS011;53892;43.258;-2.932;2022-11-15T15:57:50;9.07;;;0.80;;
66957;SDS011;53892;43.258;-2.932;2022-11-15T16:00:17;11.32;;;1.15;;
66957;SDS011;53892;43.258;-2.932;2022-11-15T16:02:44;5.95;;;0.52;;
66957;SDS011;53892;43.258;-2.932;2022-11-15T16:05:10;16.75;;;0.73;;
66957;SDS011;53892;43.258;-2.932;2022-11-15T16:07:37;7.18;;;0.80;;
66957;SDS011;53892;43.258;-2.932;2022-11-15T16:10:15;11.27;;;1.88;;
66957;SDS011;53892;43.258;-2.932;2022-11-15T16:12:42;13.45;;;0.65;;
66957;SDS011;53892;43.258;-2.932;2022-11-15T16:15:08;11.82;;;1.38;;
66957;SDS011;53892;43.258;-2.932;2022-11-15T16:17:35;9.73;;;0.43;;
66957;SDS011;53892;43.258;-2.932;2022-11-15T16:20:03;9.00;;;0.70;;
66957;SDS011;53892;43.258;-2.932;2022-11-15T16:22:29;6.88;;;0.60;;
66957;SDS011;53892;43.258;-2.932;2022-11-15T16:24:59;6.57;;;0.90;;
66957;SDS011;53892;43.258;-2.932;2022-11-15T16:27:25;8.75;;;0.88;;
66957;SDS011;53892;43.258;-2.932;2022-11-15T16:29:51;9.52;;;0.90;;
66957;SDS011;53892;43.258;-2.932;2022-11-15T16:32:17;4.45;;;0.40;;
66957;SDS011;53892;43.258;-2.932;2022-11-15T16:34:43;6.35;;;0.57;;
66957;SDS011;53892;43.258;-2.932;2022-11-15T16:37:22;11.02;;;0.98;;
66957;SDS011;53892;43.258;-2.932;2022-11-15T16:39:49;11.00;;;1.40;;
66957;SDS011;53892;43.258;-2.932;2022-11-15T16:42:15;13.32;;;0.93;;
66957;SDS011;53892;43.258;-2.932;2022-11-15T16:44:41;8.95;;;1.00;;
66957;SDS011;53892;43.258;-2.932;2022-11-15T16:47:16;4.82;;;0.65;;
66957;SDS011;53892;43.258;-2.932;2022-11-15T16:49:43;16.30;;;1.48;;
66957;SDS011;53892;43.258;-2.932;2022-11-15T16:52:09;4.20;;;0.80;;
66957;SDS011;53892;43.258;-2.932;2022-11-15T16:54:35;10.52;;;1.13;;
66957;SDS011;53892;43.258;-2.932;2022-11-15T16:57:01;5.18;;;0.60;;
66957;SDS011;53892;43.258;-2.932;2022-11-15T16:59:28;3.13;;;0.80;;
66957;SDS011;53892;43.258;-2.932;2022-11-15T17:01:56;8.32;;;1.27;;
66957;SDS011;53892;43.258;-2.932;2022-11-15T17:04:22;6.53;;;0.90;;
66957;SDS011;53892;43.258;-2.932;2022-11-15T17:06:49;11.00;;;1.95;;
66957;SDS011;53892;43.258;-2.932;2022-11-15T17:09:19;9.18;;;1.35;;
66957;SDS011;53892;43.258;-2.932;2022-11-15T17:14:15;12.60;;;2.40;;
66957;SDS011;53892;43.258;-2.932;2022-11-15T17:16:41;13.80;;;2.88;;
66957;SDS011;53892;43.258;-2.932;2022-11-15T17:19:15;14.32;;;3.15;;
66957;SDS011;53892;43.258;-2.932;2022-11-15T17:21:42;16.08;;;3.75;;
66957;SDS011;53892;43.258;-2.932;2022-11-15T17:24:09;12.32;;;3.03;;